sensor_id;sensor_type;location;lat;lon;timestamp;pressure;altitude;pressure_sealevel;temperature;humidity
60427;BME280;46274;47.168;27.604;2023-02-12T00:04:15;100539.59;;;1.49;64.85
60427;BME280;46274;47.168;27.604;2023-02-12T00:10:17;100678.44;;;2.27;65.76
60427;BME280;46274;47.168;27.604;2023-02-12T00:16:22;100682.78;;;2.41;65.08
60427;BME280;46274;47.168;27.604;2023-02-12T00:22:26;100596.31;;;1.91;64.96
60427;BME280;46274;47.168;27.604;2023-02-12T00:28:28;100672.94;;;2.42;64.98
60427;BME280;46274;47.168;27.604;2023-02-12T00:34:30;100585.97;;;1.99;64.78
60427;BME280;46274;47.168;27.604;2023-02-12T00:40:32;100665.31;;;2.61;65.47
60427;BME280;46274;47.168;27.604;2023-02-12T00:46:36;100670.50;;;2.75;65.08
60427;BME280;46274;47.168;27.604;2023-02-12T00:52:42;100672.91;;;2.91;64.53
60427;BME280;46274;47.168;27.604;2023-02-12T00:58:48;100556.91;;;2.31;64.27
60427;BME280;46274;47.168;27.604;2023-02-12T01:04:52;100702.41;;;3.39;65.88
60427;BME280;46274;47.168;27.604;2023-02-12T01:11:03;100637.56;;;2.75;67.60
60427;BME280;46274;47.168;27.604;2023-02-12T01:17:10;100706.31;;;3.22;68.24
60427;BME280;46274;47.168;27.604;2023-02-12T01:23:19;100697.28;;;2.99;69.86
60427;BME280;46274;47.168;27.604;2023-02-12T01:29:22;100601.06;;;2.37;70.62
60427;BME280;46274;47.168;27.604;2023-02-12T01:35:25;100675.00;;;2.75;71.24
60427;BME280;46274;47.168;27.604;2023-02-12T01:41:39;100692.56;;;2.79;71.00
60427;BME280;46274;47.168;27.604;2023-02-12T01:47:43;100594.91;;;2.24;70.79
60427;BME280;46274;47.168;27.604;2023-02-12T01:53:54;100605.66;;;2.35;70.62
60427;BME280;46274;47.168;27.604;2023-02-12T01:59:59;100705.59;;;2.83;71.02
60427;BME280;46274;47.168;27.604;2023-02-12T02:06:13;100664.03;;;2.67;71.20
60427;BME280;46274;47.168;27.604;2023-02-12T02:12:19;100684.59;;;2.90;71.30
60427;BME280;46274;47.168;27.604;2023-02-12T02:19:01;100699.59;;;2.93;73.25
60427;BME280;46274;47.168;27.604;2023-02-12T02:25:19;100722.97;;;2.78;74.22
60427;BME280;46274;47.168;27.604;2023-02-12T02:32:14;100720.63;;;2.60;74.90
60427;BME280;46274;47.168;27.604;2023-02-12T02:38:15;100723.81;;;2.66;74.47
60427;BME280;46274;47.168;27.604;2023-02-12T02:44:41;100682.25;;;2.49;73.83
60427;BME280;46274;47.168;27.604;2023-02-12T02:50:49;100732.03;;;2.88;73.92
60427;BME280;46274;47.168;27.604;2023-02-12T02:56:58;100756.63;;;2.93;73.96
60427;BME280;46274;47.168;27.604;2023-02-12T03:03:10;100722.31;;;2.87;74.22
60427;BME280;46274;47.168;27.604;2023-02-12T03:09:18;100764.22;;;2.99;74.32
60427;BME280;46274;47.168;27.604;2023-02-12T03:15:56;100599.97;;;1.90;74.97
60427;BME280;46274;47.168;27.604;2023-02-12T03:22:07;100784.41;;;2.79;76.70
60427;BME280;46274;47.168;27.604;2023-02-12T03:28:24;100787.31;;;2.64;78.14
60427;BME280;46274;47.168;27.604;2023-02-12T03:34:39;100788.91;;;2.53;78.73
60427;BME280;46274;47.168;27.604;2023-02-12T03:40:58;100763.00;;;2.15;79.95
60427;BME280;46274;47.168;27.604;2023-02-12T03:47:36;100803.03;;;2.30;80.04
60427;BME280;46274;47.168;27.604;2023-02-12T03:53:40;100823.44;;;2.31;80.57
60427;BME280;46274;47.168;27.604;2023-02-12T03:59:44;100818.97;;;2.31;80.91
60427;BME280;46274;47.168;27.604;2023-02-12T04:05:51;100826.75;;;2.22;82.23
60427;BME280;46274;47.168;27.604;2023-02-12T04:18:40;100842.38;;;2.28;82.00
60427;BME280;46274;47.168;27.604;2023-02-12T04:24:58;100845.59;;;2.33;81.88
60427;BME280;46274;47.168;27.604;2023-02-12T04:31:30;100859.91;;;2.32;81.97
60427;BME280;46274;47.168;27.604;2023-02-12T04:37:42;100855.44;;;2.20;81.61
60427;BME280;46274;47.168;27.604;2023-02-12T04:43:46;100875.84;;;2.21;82.21
60427;BME280;46274;47.168;27.604;2023-02-12T04:49:48;100803.94;;;1.63;82.34
60427;BME280;46274;47.168;27.604;2023-02-12T04:55:51;100889.06;;;2.09;82.52
60427;BME280;46274;47.168;27.604;2023-02-12T05:01:54;100854.41;;;1.81;82.59
60427;BME280;46274;47.168;27.604;2023-02-12T05:07:56;100825.75;;;1.70;82.09
60427;BME280;46274;47.168;27.604;2023-02-12T05:13:59;100921.09;;;2.24;81.90
60427;BME280;46274;47.168;27.604;2023-02-12T05:20:01;100929.97;;;2.24;81.79
60427;BME280;46274;47.168;27.604;2023-02-12T05:26:06;100929.44;;;2.32;81.52
60427;BME280;46274;47.168;27.604;2023-02-12T05:32:09;100909.78;;;2.06;81.38
60427;BME280;46274;47.168;27.604;2023-02-12T05:38:11;100933.06;;;2.18;81.39
60427;BME280;46274;47.168;27.604;2023-02-12T05:44:14;100986.38;;;2.34;81.15
60427;BME280;46274;47.168;27.604;2023-02-12T05:50:16;100998.19;;;2.44;80.86
60427;BME280;46274;47.168;27.604;2023-02-12T05:56:23;101010.78;;;2.42;80.82
60427;BME280;46274;47.168;27.604;2023-02-12T06:02:25;101027.09;;;2.52;80.73
60427;BME280;46274;47.168;27.604;2023-02-12T06:15:05;101044.56;;;2.57;80.52
60427;BME280;46274;47.168;27.604;2023-02-12T06:21:11;101002.47;;;2.20;80.58
60427;BME280;46274;47.168;27.604;2023-02-12T06:27:13;101077.84;;;2.53;80.66
60427;BME280;46274;47.168;27.604;2023-02-12T06:33:29;100987.25;;;1.93;80.75
60427;BME280;46274;47.168;27.604;2023-02-12T06:39:44;100921.66;;;1.31;80.85
60427;BME280;46274;47.168;27.604;2023-02-12T06:46:00;100922.66;;;1.45;80.49
60427;BME280;46274;47.168;27.604;2023-02-12T06:52:09;100941.34;;;1.45;80.45
60427;BME280;46274;47.168;27.604;2023-02-12T06:58:13;101118.47;;;2.46;80.44
60427;BME280;46274;47.168;27.604;2023-02-12T07:04:15;101136.69;;;2.53;80.42
60427;BME280;46274;47.168;27.604;2023-02-12T07:10:18;101141.16;;;2.53;80.61
60427;BME280;46274;47.168;27.604;2023-02-12T07:16:20;101132.88;;;2.43;80.19
60427;BME280;46274;47.168;27.604;2023-02-12T07:22:23;101174.88;;;2.55;80.72
60427;BME280;46274;47.168;27.604;2023-02-12T07:28:26;101185.69;;;2.54;80.30
60427;BME280;46274;47.168;27.604;2023-02-12T07:34:29;101032.88;;;1.61;80.07
60427;BME280;46274;47.168;27.604;2023-02-12T07:40:32;101188.75;;;2.48;78.99
60427;BME280;46274;47.168;27.604;2023-02-12T07:46:42;101185.63;;;2.41;78.54
60427;BME280;46274;47.168;27.604;2023-02-12T07:52:48;101140.06;;;2.00;77.41
60427;BME280;46274;47.168;27.604;2023-02-12T07:58:53;101243.09;;;2.62;77.91
60427;BME280;46274;47.168;27.604;2023-02-12T08:04:56;101182.66;;;2.17;76.63
60427;BME280;46274;47.168;27.604;2023-02-12T08:10:59;101269.75;;;2.50;76.51
60427;BME280;46274;47.168;27.604;2023-02-12T08:17:02;101159.16;;;1.79;76.02
60427;BME280;46274;47.168;27.604;2023-02-12T08:23:04;101290.97;;;2.53;75.98
60427;BME280;46274;47.168;27.604;2023-02-12T08:29:21;101288.31;;;2.67;75.19
60427;BME280;46274;47.168;27.604;2023-02-12T08:35:26;101265.25;;;2.93;74.38
60427;BME280;46274;47.168;27.604;2023-02-12T08:41:29;101308.84;;;2.95;69.24
60427;BME280;46274;47.168;27.604;2023-02-12T08:47:39;101334.66;;;2.68;64.83
60427;BME280;46274;47.168;27.604;2023-02-12T08:53:50;101229.34;;;2.26;66.33
60427;BME280;46274;47.168;27.604;2023-02-12T08:59:53;101354.44;;;2.94;64.53
60427;BME280;46274;47.168;27.604;2023-02-12T09:05:56;101373.69;;;3.00;66.27
60427;BME280;46274;47.168;27.604;2023-02-12T09:11:58;101375.13;;;3.20;66.16
60427;BME280;46274;47.168;27.604;2023-02-12T09:18:00;101397.59;;;3.03;65.54
60427;BME280;46274;47.168;27.604;2023-02-12T09:24:08;101396.16;;;3.41;63.49
60427;BME280;46274;47.168;27.604;2023-02-12T09:30:19;101406.38;;;3.20;62.04
60427;BME280;46274;47.168;27.604;2023-02-12T09:36:34;101309.13;;;3.05;63.82
60427;BME280;46274;47.168;27.604;2023-02-12T09:49:08;101424.94;;;3.52;62.03
60427;BME280;46274;47.168;27.604;2023-02-12T09:55:20;101411.16;;;3.43;61.64
60427;BME280;46274;47.168;27.604;2023-02-12T10:01:29;101400.69;;;3.53;60.91
60427;BME280;46274;47.168;27.604;2023-02-12T10:20:43;101456.31;;;3.35;59.33
60427;BME280;46274;47.168;27.604;2023-02-12T10:26:54;101465.88;;;3.54;60.26
60427;BME280;46274;47.168;27.604;2023-02-12T10:33:48;101372.88;;;3.27;60.29
60427;BME280;46274;47.168;27.604;2023-02-12T10:39:34;101453.88;;;4.15;61.34
60427;BME280;46274;47.168;27.604;2023-02-12T10:45:42;101484.06;;;3.77;60.44
60427;BME280;46274;47.168;27.604;2023-02-12T10:58:03;101449.63;;;4.52;60.55
60427;BME280;46274;47.168;27.604;2023-02-12T11:04:23;101489.16;;;4.63;59.63
60427;BME280;46274;47.168;27.604;2023-02-12T11:10:40;101449.00;;;4.07;60.17
60427;BME280;46274;47.168;27.604;2023-02-12T11:16:58;101496.88;;;4.55;58.68
60427;BME280;46274;47.168;27.604;2023-02-12T11:29:36;101422.25;;;4.20;60.44
60427;BME280;46274;47.168;27.604;2023-02-12T11:36:22;101503.50;;;5.02;60.38
60427;BME280;46274;47.168;27.604;2023-02-12T11:42:29;101520.41;;;3.96;59.17
60427;BME280;46274;47.168;27.604;2023-02-12T11:48:47;101508.22;;;4.86;58.49
60427;BME280;46274;47.168;27.604;2023-02-12T12:01:50;101506.50;;;4.45;59.23
60427;BME280;46274;47.168;27.604;2023-02-12T12:08:20;101541.59;;;4.81;58.94
60427;BME280;46274;47.168;27.604;2023-02-12T12:14:54;101521.75;;;4.03;59.04
60427;BME280;46274;47.168;27.604;2023-02-12T12:21:44;101496.50;;;4.20;57.25
60427;BME280;46274;47.168;27.604;2023-02-12T12:34:26;101550.47;;;4.01;57.50
60427;BME280;46274;47.168;27.604;2023-02-12T13:01:55;101552.13;;;4.30;56.79
60427;BME280;46274;47.168;27.604;2023-02-12T13:14:46;101610.13;;;3.61;57.42
60427;BME280;46274;47.168;27.604;2023-02-12T13:34:19;101478.72;;;3.48;58.13
60427;BME280;46274;47.168;27.604;2023-02-12T13:40:35;101521.88;;;3.44;56.59
60427;BME280;46274;47.168;27.604;2023-02-12T13:54:01;101626.72;;;4.11;57.37
60427;BME280;46274;47.168;27.604;2023-02-12T14:13:22;101565.69;;;2.98;57.10
60427;BME280;46274;47.168;27.604;2023-02-12T14:26:24;101672.06;;;3.26;57.79
60427;BME280;46274;47.168;27.604;2023-02-12T14:45:36;101519.03;;;1.94;56.76
60427;BME280;46274;47.168;27.604;2023-02-12T14:58:35;101668.31;;;2.67;57.59
60427;BME280;46274;47.168;27.604;2023-02-12T15:05:17;101705.59;;;2.54;58.22
60427;BME280;46274;47.168;27.604;2023-02-12T15:17:38;101723.78;;;2.32;58.23
60427;BME280;46274;47.168;27.604;2023-02-12T15:24:00;101735.16;;;2.02;58.44
60427;BME280;46274;47.168;27.604;2023-02-12T15:30:02;101503.25;;;0.55;59.05
60427;BME280;46274;47.168;27.604;2023-02-12T15:36:29;101753.72;;;1.88;59.27
60427;BME280;46274;47.168;27.604;2023-02-12T15:42:35;101769.84;;;1.69;60.39
60427;BME280;46274;47.168;27.604;2023-02-12T15:48:39;101773.34;;;1.52;61.28
60427;BME280;46274;47.168;27.604;2023-02-12T15:54:43;101786.78;;;1.50;61.81
60427;BME280;46274;47.168;27.604;2023-02-12T16:00:46;101781.78;;;1.25;62.45
60427;BME280;46274;47.168;27.604;2023-02-12T16:06:49;101582.81;;;-0.10;63.47
60427;BME280;46274;47.168;27.604;2023-02-12T16:12:52;101812.03;;;1.07;64.84
60427;BME280;46274;47.168;27.604;2023-02-12T16:19:15;101827.56;;;0.99;65.48
60427;BME280;46274;47.168;27.604;2023-02-12T16:25:23;101842.47;;;1.03;65.39
60427;BME280;46274;47.168;27.604;2023-02-12T16:31:27;101690.22;;;0.11;64.73
60427;BME280;46274;47.168;27.604;2023-02-12T16:43:38;101864.84;;;0.61;67.25
60427;BME280;46274;47.168;27.604;2023-02-12T16:49:58;101880.19;;;0.56;67.18
60427;BME280;46274;47.168;27.604;2023-02-12T16:56:03;101859.47;;;0.42;67.46
60427;BME280;46274;47.168;27.604;2023-02-12T17:02:13;101851.66;;;0.37;67.06
60427;BME280;46274;47.168;27.604;2023-02-12T17:08:19;101786.63;;;-0.20;67.33
60427;BME280;46274;47.168;27.604;2023-02-12T17:14:22;101872.94;;;0.18;67.62
60427;BME280;46274;47.168;27.604;2023-02-12T17:20:24;101902.13;;;0.21;67.88
60427;BME280;46274;47.168;27.604;2023-02-12T17:26:27;101877.47;;;-0.06;67.98
60427;BME280;46274;47.168;27.604;2023-02-12T17:32:30;101920.09;;;0.16;67.51
60427;BME280;46274;47.168;27.604;2023-02-12T17:38:33;101910.31;;;0.17;67.34
60427;BME280;46274;47.168;27.604;2023-02-12T17:44:35;101854.63;;;-0.11;67.22
60427;BME280;46274;47.168;27.604;2023-02-12T17:50:40;101831.41;;;-0.52;67.60
60427;BME280;46274;47.168;27.604;2023-02-12T17:56:43;101892.41;;;-0.02;67.43
60427;BME280;46274;47.168;27.604;2023-02-12T18:02:46;101924.66;;;-0.08;67.75
60427;BME280;46274;47.168;27.604;2023-02-12T18:08:50;101926.56;;;-0.33;68.46
60427;BME280;46274;47.168;27.604;2023-02-12T18:15:00;101917.22;;;-0.22;67.80
60427;BME280;46274;47.168;27.604;2023-02-12T18:21:12;101799.66;;;-0.78;67.15
60427;BME280;46274;47.168;27.604;2023-02-12T18:27:20;101930.66;;;-0.25;67.84
60427;BME280;46274;47.168;27.604;2023-02-12T18:33:23;101940.06;;;-0.16;67.87
60427;BME280;46274;47.168;27.604;2023-02-12T18:39:25;101892.25;;;-0.86;69.07
60427;BME280;46274;47.168;27.604;2023-02-12T18:45:28;101952.34;;;-0.57;68.98
60427;BME280;46274;47.168;27.604;2023-02-12T18:51:31;101940.44;;;-0.71;69.51
60427;BME280;46274;47.168;27.604;2023-02-12T18:57:39;101858.00;;;-1.19;69.21
60427;BME280;46274;47.168;27.604;2023-02-12T19:03:43;101943.56;;;-0.59;68.93
60427;BME280;46274;47.168;27.604;2023-02-12T19:09:46;101951.44;;;-0.80;69.33
60427;BME280;46274;47.168;27.604;2023-02-12T19:15:48;101963.28;;;-0.89;69.70
60427;BME280;46274;47.168;27.604;2023-02-12T19:21:51;101871.66;;;-1.54;70.28
60427;BME280;46274;47.168;27.604;2023-02-12T19:27:53;101968.59;;;-0.89;69.83
60427;BME280;46274;47.168;27.604;2023-02-12T19:33:58;101969.69;;;-0.94;69.44
60427;BME280;46274;47.168;27.604;2023-02-12T19:40:01;101973.78;;;-1.09;70.15
60427;BME280;46274;47.168;27.604;2023-02-12T19:46:14;102003.19;;;-1.14;70.34
60427;BME280;46274;47.168;27.604;2023-02-12T19:52:17;101996.97;;;-1.13;70.04
60427;BME280;46274;47.168;27.604;2023-02-12T19:58:21;101998.69;;;-1.12;69.85
60427;BME280;46274;47.168;27.604;2023-02-12T20:04:23;101963.94;;;-1.32;69.81
60427;BME280;46274;47.168;27.604;2023-02-12T20:10:26;101988.81;;;-1.08;69.66
60427;BME280;46274;47.168;27.604;2023-02-12T20:16:30;101942.56;;;-1.54;70.16
60427;BME280;46274;47.168;27.604;2023-02-12T20:22:38;101937.97;;;-1.49;69.79
60427;BME280;46274;47.168;27.604;2023-02-12T20:28:41;101958.69;;;-1.34;69.54
60427;BME280;46274;47.168;27.604;2023-02-12T20:34:44;101991.44;;;-1.32;70.18
60427;BME280;46274;47.168;27.604;2023-02-12T20:40:51;101963.06;;;-1.33;69.66
60427;BME280;46274;47.168;27.604;2023-02-12T20:46:53;101989.31;;;-0.97;68.46
60427;BME280;46274;47.168;27.604;2023-02-12T20:52:58;101983.56;;;-1.10;69.13
60427;BME280;46274;47.168;27.604;2023-02-12T20:59:01;101948.75;;;-1.54;70.35
60427;BME280;46274;47.168;27.604;2023-02-12T21:05:05;101966.06;;;-1.42;70.00
60427;BME280;46274;47.168;27.604;2023-02-12T21:11:12;101978.06;;;-1.30;69.82
60427;BME280;46274;47.168;27.604;2023-02-12T21:17:18;101924.53;;;-1.71;70.28
60427;BME280;46274;47.168;27.604;2023-02-12T21:23:21;101917.75;;;-1.80;69.91
60427;BME280;46274;47.168;27.604;2023-02-12T21:29:24;101980.28;;;-1.43;70.30
60427;BME280;46274;47.168;27.604;2023-02-12T21:35:28;101986.63;;;-1.47;70.35
60427;BME280;46274;47.168;27.604;2023-02-12T21:41:33;101983.88;;;-1.44;70.59
60427;BME280;46274;47.168;27.604;2023-02-12T21:47:36;101970.69;;;-1.47;70.48
60427;BME280;46274;47.168;27.604;2023-02-12T21:53:38;101976.09;;;-1.50;70.71
60427;BME280;46274;47.168;27.604;2023-02-12T21:59:42;101951.78;;;-1.64;70.85
60427;BME280;46274;47.168;27.604;2023-02-12T22:05:45;101973.88;;;-1.62;71.36
60427;BME280;46274;47.168;27.604;2023-02-12T22:11:47;101978.97;;;-1.56;71.52
60427;BME280;46274;47.168;27.604;2023-02-12T22:17:49;101970.28;;;-1.61;71.37
60427;BME280;46274;47.168;27.604;2023-02-12T22:23:52;101903.78;;;-1.86;71.39
60427;BME280;46274;47.168;27.604;2023-02-12T22:29:54;101878.50;;;-1.98;71.25
60427;BME280;46274;47.168;27.604;2023-02-12T22:36:01;101950.19;;;-1.45;71.21
60427;BME280;46274;47.168;27.604;2023-02-12T22:42:05;101922.56;;;-1.66;71.38
60427;BME280;46274;47.168;27.604;2023-02-12T22:48:08;101963.50;;;-1.45;71.20
60427;BME280;46274;47.168;27.604;2023-02-12T22:54:15;101953.13;;;-1.52;71.46
60427;BME280;46274;47.168;27.604;2023-02-12T23:00:18;101933.91;;;-1.61;71.60
60427;BME280;46274;47.168;27.604;2023-02-12T23:06:23;101866.13;;;-1.99;71.26
60427;BME280;46274;47.168;27.604;2023-02-12T23:12:27;101937.34;;;-1.57;71.53
60427;BME280;46274;47.168;27.604;2023-02-12T23:18:30;101919.53;;;-1.55;71.36
60427;BME280;46274;47.168;27.604;2023-02-12T23:24:32;101904.63;;;-1.59;71.48
60427;BME280;46274;47.168;27.604;2023-02-12T23:30:35;101878.91;;;-1.84;71.41
60427;BME280;46274;47.168;27.604;2023-02-12T23:36:37;101877.78;;;-1.77;71.05
60427;BME280;46274;47.168;27.604;2023-02-12T23:42:40;101871.75;;;-1.82;71.40
60427;BME280;46274;47.168;27.604;2023-02-12T23:48:42;101904.75;;;-1.62;71.43
60427;BME280;46274;47.168;27.604;2023-02-12T23:54:46;101743.59;;;-2.65;71.65
